createdAt,value
2022-12-11T00:00:49.183Z,11.77
2022-12-11T00:02:50.744Z,13.43
2022-12-11T00:04:52.213Z,12.75
2022-12-11T00:06:53.789Z,12.23
2022-12-11T00:08:55.787Z,13.00
2022-12-11T00:10:57.241Z,12.88
2022-12-11T00:12:58.760Z,12.23
2022-12-11T00:15:00.196Z,12.70
2022-12-11T00:17:01.695Z,13.48
2022-12-11T00:19:03.315Z,12.50
2022-12-11T00:21:06.895Z,13.15
2022-12-11T00:23:08.366Z,12.85
2022-12-11T00:25:10.334Z,12.98
2022-12-11T00:27:11.996Z,12.52
2022-12-11T00:29:14.686Z,13.30
2022-12-11T00:31:18.150Z,13.85
2022-12-11T00:33:19.640Z,13.52
2022-12-11T00:35:21.134Z,13.68
2022-12-11T00:37:22.632Z,12.85
2022-12-11T00:39:24.119Z,11.90
2022-12-11T00:41:25.586Z,12.75
2022-12-11T00:43:27.080Z,12.73
2022-12-11T00:45:28.611Z,13.38
2022-12-11T00:47:30.058Z,12.93
2022-12-11T00:49:31.598Z,13.32
2022-12-11T00:51:33.402Z,12.70
2022-12-11T00:53:34.952Z,12.18
2022-12-11T00:55:37.826Z,12.93
2022-12-11T00:57:39.395Z,12.75
2022-12-11T00:59:40.879Z,12.40
2022-12-11T01:01:42.552Z,13.07
2022-12-11T01:03:44.835Z,12.15
2022-12-11T01:05:54.199Z,13.23
2022-12-11T01:07:55.723Z,12.73
2022-12-11T01:10:15.931Z,12.80
2022-12-11T01:12:17.460Z,12.77
2022-12-11T01:14:19.209Z,13.02
2022-12-11T01:16:20.776Z,12.75
2022-12-11T01:18:22.504Z,13.32
2022-12-11T01:20:26.200Z,12.82
2022-12-11T01:22:27.649Z,12.52
2022-12-11T01:24:29.101Z,12.25
2022-12-11T01:26:30.800Z,12.43
2022-12-11T01:28:32.274Z,13.10
2022-12-11T01:30:34.563Z,12.60
2022-12-11T01:32:36.815Z,12.30
2022-12-11T01:34:38.632Z,12.45
2022-12-11T01:36:40.084Z,12.32
2022-12-11T01:38:41.915Z,12.98
2022-12-11T01:40:51.219Z,12.45
2022-12-11T01:42:52.699Z,12.13
2022-12-11T01:45:15.766Z,12.18
2022-12-11T01:47:17.435Z,12.20
2022-12-11T01:49:21.887Z,12.55
2022-12-11T01:51:24.366Z,12.02
2022-12-11T01:53:31.183Z,12.55
2022-12-11T01:55:33.917Z,12.93
2022-12-11T01:57:39.781Z,12.13
2022-12-11T01:59:44.626Z,12.75
2022-12-11T02:01:46.019Z,12.75
2022-12-11T02:03:48.039Z,12.38
2022-12-11T02:05:49.947Z,12.18
2022-12-11T02:07:58.684Z,12.60
2022-12-11T02:12:10.786Z,12.77
2022-12-11T02:14:17.928Z,12.45
2022-12-11T02:16:35.852Z,13.23
2022-12-11T02:18:53.800Z,13.05
2022-12-11T02:21:18.851Z,13.07
2022-12-11T02:23:39.433Z,12.45
2022-12-11T02:26:04.014Z,12.35
2022-12-11T02:28:08.127Z,12.90
2022-12-11T02:30:13.858Z,12.93
2022-12-11T02:32:23.306Z,13.15
2022-12-11T02:34:30.648Z,13.13
2022-12-11T02:36:38.086Z,12.63
2022-12-11T02:38:43.010Z,12.55
2022-12-11T02:40:46.943Z,12.38
2022-12-11T02:42:49.849Z,11.82
2022-12-11T02:44:54.411Z,12.48
2022-12-11T02:46:58.382Z,12.32
2022-12-11T02:49:01.649Z,13.20
2022-12-11T02:51:06.833Z,12.25
2022-12-11T02:53:12.715Z,13.48
2022-12-11T02:55:16.370Z,13.48
2022-12-11T02:57:42.136Z,13.18
2022-12-11T02:59:45.396Z,13.23
2022-12-11T03:01:47.329Z,13.18
2022-12-11T03:03:49.184Z,13.23
2022-12-11T03:05:50.922Z,13.13
2022-12-11T03:07:52.508Z,13.23
2022-12-11T03:09:54.250Z,13.15
2022-12-11T03:11:55.809Z,12.52
2022-12-11T03:13:57.537Z,13.48
2022-12-11T03:16:21.824Z,13.40
2022-12-11T03:18:44.248Z,12.75
2022-12-11T03:20:52.003Z,13.00
2022-12-11T03:23:22.054Z,12.60
2022-12-11T03:25:31.217Z,13.45
2022-12-11T03:27:46.162Z,13.65
2022-12-11T03:29:57.196Z,12.27
2022-12-11T03:32:09.379Z,12.40
2022-12-11T03:34:18.069Z,13.90
2022-12-11T03:36:25.438Z,13.15
2022-12-11T03:38:53.215Z,13.95
2022-12-11T03:40:58.748Z,12.77
2022-12-11T03:43:00.673Z,12.43
2022-12-11T03:45:04.930Z,12.55
2022-12-11T03:47:08.438Z,13.27
2022-12-11T03:49:27.930Z,13.27
2022-12-11T03:51:32.526Z,13.35
2022-12-11T03:53:38.565Z,12.90
2022-12-11T03:55:41.542Z,12.88
2022-12-11T03:57:43.598Z,12.05
2022-12-11T03:59:45.325Z,12.95
2022-12-11T04:01:46.836Z,13.30
2022-12-11T04:03:48.341Z,13.70
2022-12-11T04:05:52.888Z,13.35
2022-12-11T04:07:54.361Z,13.20
2022-12-11T04:09:55.809Z,13.32
2022-12-11T04:11:57.257Z,13.38
2022-12-11T04:14:17.285Z,13.15
2022-12-11T04:16:18.763Z,13.50
2022-12-11T04:18:38.477Z,13.07
2022-12-11T04:20:58.173Z,12.82
2022-12-11T04:23:18.454Z,13.38
2022-12-11T04:25:19.903Z,13.40
2022-12-11T04:27:47.443Z,13.70
2022-12-11T04:29:48.868Z,13.75
2022-12-11T04:31:50.743Z,14.52
2022-12-11T04:33:52.268Z,12.65
2022-12-11T04:35:53.853Z,13.40
2022-12-11T04:37:55.331Z,14.10
2022-12-11T04:39:56.768Z,13.85
2022-12-11T04:41:58.214Z,14.02
2022-12-11T04:43:59.667Z,14.88
2022-12-11T04:46:14.877Z,14.07
2022-12-11T04:48:16.351Z,14.25
2022-12-11T04:50:17.983Z,14.07
2022-12-11T04:52:19.482Z,14.32
2022-12-11T04:54:20.916Z,13.40
2022-12-11T04:56:22.413Z,14.48
2022-12-11T04:58:25.182Z,14.05
2022-12-11T05:00:27.185Z,14.30
2022-12-11T05:02:28.682Z,14.73
2022-12-11T05:04:34.807Z,14.20
2022-12-11T05:06:36.309Z,15.57
2022-12-11T05:08:40.495Z,14.73
2022-12-11T05:10:47.097Z,14.25
2022-12-11T05:12:51.394Z,15.20
2022-12-11T05:14:53.601Z,15.52
2022-12-11T05:16:55.035Z,14.15
2022-12-11T05:18:56.475Z,14.30
2022-12-11T05:21:00.342Z,14.43
2022-12-11T05:23:02.028Z,14.65
2022-12-11T05:25:04.142Z,14.73
2022-12-11T05:27:05.586Z,13.60
2022-12-11T05:29:07.068Z,13.35
2022-12-11T05:31:13.492Z,13.90
2022-12-11T05:33:14.963Z,13.35
2022-12-11T05:35:16.461Z,13.70
2022-12-11T05:37:17.903Z,13.32
2022-12-11T05:39:19.756Z,16.05
2022-12-11T05:41:23.675Z,12.95
2022-12-11T05:43:25.403Z,13.70
2022-12-11T05:45:26.869Z,13.55
2022-12-11T05:47:28.311Z,12.80
2022-12-11T05:49:31.218Z,12.70
2022-12-11T05:51:34.358Z,13.25
2022-12-11T05:53:37.274Z,13.77
2022-12-11T05:55:38.751Z,12.60
2022-12-11T05:57:40.178Z,13.27
2022-12-11T05:59:41.673Z,12.73
2022-12-11T06:01:43.561Z,13.27
2022-12-11T06:03:45.632Z,12.93
2022-12-11T06:05:47.108Z,13.35
2022-12-11T06:07:48.568Z,13.35
2022-12-11T06:09:50.012Z,12.73
2022-12-11T06:11:51.495Z,13.00
2022-12-11T06:13:53.126Z,13.65
2022-12-11T06:15:54.814Z,13.15
2022-12-11T06:17:56.279Z,13.35
2022-12-11T06:19:57.713Z,13.32
2022-12-11T06:21:59.239Z,12.65
2022-12-11T06:24:03.177Z,12.48
2022-12-11T06:26:04.901Z,13.23
2022-12-11T06:28:06.462Z,13.45
2022-12-11T06:30:08.675Z,13.38
2022-12-11T06:32:10.406Z,13.38
2022-12-11T06:34:13.699Z,13.65
2022-12-11T06:36:21.474Z,13.15
2022-12-11T06:38:23.543Z,14.23
2022-12-11T06:40:25.059Z,12.65
2022-12-11T06:42:26.483Z,13.23
2022-12-11T06:44:28.145Z,13.25
2022-12-11T06:46:29.627Z,13.10
2022-12-11T06:48:31.345Z,14.23
2022-12-11T06:50:33.125Z,13.20
2022-12-11T06:52:34.680Z,12.23
2022-12-11T06:54:36.386Z,14.18
2022-12-11T06:56:37.835Z,13.05
2022-12-11T06:58:40.201Z,13.15
2022-12-11T07:00:41.767Z,14.18
2022-12-11T07:02:43.226Z,13.75
2022-12-11T07:04:44.746Z,13.60
2022-12-11T07:06:47.453Z,14.00
2022-12-11T07:08:49.165Z,14.02
2022-12-11T07:10:50.655Z,12.98
2022-12-11T07:12:55.047Z,13.35
2022-12-11T07:14:56.518Z,12.90
2022-12-11T07:16:58.194Z,12.80
2022-12-11T07:19:00.667Z,14.38
2022-12-11T07:21:02.233Z,14.30
2022-12-11T07:23:03.710Z,13.10
2022-12-11T07:25:05.553Z,13.45
2022-12-11T07:27:06.993Z,13.85
2022-12-11T07:29:08.506Z,13.38
2022-12-11T07:31:15.898Z,13.85
2022-12-11T07:33:17.414Z,14.15
2022-12-11T07:35:18.939Z,14.27
2022-12-11T07:37:20.379Z,13.00
2022-12-11T07:39:21.811Z,13.13
2022-12-11T07:41:23.465Z,12.98
2022-12-11T07:43:24.895Z,13.30
2022-12-11T07:45:26.588Z,13.27
2022-12-11T07:47:28.056Z,14.13
2022-12-11T07:49:29.587Z,13.18
2022-12-11T07:51:33.025Z,13.80
2022-12-11T07:53:34.476Z,13.60
2022-12-11T07:55:35.966Z,14.20
2022-12-11T07:57:37.431Z,13.30
2022-12-11T07:59:38.910Z,13.63
2022-12-11T08:01:40.887Z,13.52
2022-12-11T08:03:42.578Z,14.32
2022-12-11T08:05:49.981Z,14.00
2022-12-11T08:07:51.450Z,14.10
2022-12-11T08:09:52.945Z,13.45
2022-12-11T08:11:54.402Z,13.48
2022-12-11T08:13:56.366Z,14.30
2022-12-11T08:15:58.313Z,14.13
2022-12-11T08:17:59.960Z,13.18
2022-12-11T08:20:01.405Z,13.95
2022-12-11T08:22:03.628Z,13.65
2022-12-11T08:24:05.182Z,12.88
2022-12-11T08:26:10.198Z,13.32
2022-12-11T08:28:11.634Z,14.57
2022-12-11T08:30:13.467Z,14.63
2022-12-11T08:32:16.756Z,13.75
2022-12-11T08:34:18.305Z,14.00
2022-12-11T08:36:21.237Z,14.30
2022-12-11T08:38:25.549Z,12.90
2022-12-11T08:40:27.266Z,13.85
2022-12-11T08:42:28.699Z,14.02
2022-12-11T08:44:30.229Z,13.13
2022-12-11T08:46:32.676Z,14.30
2022-12-11T08:48:35.464Z,13.60
2022-12-11T08:50:37.265Z,13.70
2022-12-11T08:52:38.729Z,12.93
2022-12-11T08:54:40.355Z,14.13
2022-12-11T08:56:41.813Z,14.10
2022-12-11T08:58:44.668Z,17.02
2022-12-11T09:00:46.277Z,13.30
2022-12-11T09:02:48.354Z,13.57
2022-12-11T09:04:50.543Z,13.35
2022-12-11T09:06:51.999Z,13.25
2022-12-11T09:08:54.633Z,14.55
2022-12-11T09:10:56.074Z,12.65
2022-12-11T09:12:57.524Z,12.50
2022-12-11T09:14:58.970Z,13.25
2022-12-11T09:17:00.446Z,11.30
2022-12-11T09:19:01.883Z,12.88
2022-12-11T09:21:17.895Z,15.40
2022-12-11T09:23:19.331Z,17.13
2022-12-11T09:25:20.892Z,13.13
2022-12-11T09:27:22.369Z,13.60
2022-12-11T09:29:23.910Z,12.63
2022-12-11T09:31:28.260Z,13.25
2022-12-11T09:33:29.690Z,13.23
2022-12-11T09:35:31.134Z,12.77
2022-12-11T09:37:34.017Z,13.13
2022-12-11T09:39:35.496Z,12.65
2022-12-11T09:41:50.034Z,12.70
2022-12-11T09:44:18.370Z,13.75
2022-12-11T09:46:23.613Z,13.35
2022-12-11T09:48:26.594Z,12.77
2022-12-11T09:50:32.876Z,14.10
2022-12-11T09:53:02.530Z,14.05
2022-12-11T09:55:15.488Z,13.02
2022-12-11T09:57:28.997Z,14.38
2022-12-11T10:00:02.719Z,13.95
2022-12-11T10:02:22.525Z,14.05
2022-12-11T10:04:26.721Z,13.15
2022-12-11T10:06:32.541Z,15.18
2022-12-11T10:08:44.863Z,14.15
2022-12-11T10:11:30.589Z,14.88
2022-12-11T10:13:48.315Z,14.27
2022-12-11T10:16:19.101Z,14.63
2022-12-11T10:18:23.452Z,15.55
2022-12-11T10:20:31.739Z,14.13
2022-12-11T10:22:34.711Z,16.45
2022-12-11T10:25:11.568Z,16.83
2022-12-11T10:27:26.716Z,14.95
2022-12-11T10:29:28.397Z,15.10
2022-12-11T10:31:45.081Z,14.85
2022-12-11T10:34:15.232Z,15.00
2022-12-11T10:36:25.216Z,14.80
2022-12-11T10:38:32.319Z,14.70
2022-12-11T10:40:36.268Z,13.70
2022-12-11T10:42:41.273Z,14.85
2022-12-11T10:44:58.241Z,15.07
2022-12-11T10:47:04.601Z,15.60
2022-12-11T10:49:06.034Z,15.52
2022-12-11T10:51:07.956Z,15.13
2022-12-11T10:53:21.123Z,14.85
2022-12-11T10:55:27.378Z,14.82
2022-12-11T10:57:32.537Z,14.68
2022-12-11T10:59:43.939Z,13.93
2022-12-11T11:01:46.711Z,14.07
2022-12-11T11:04:06.933Z,14.40
2022-12-11T11:06:20.151Z,14.10
2022-12-11T11:08:25.283Z,14.63
2022-12-11T11:10:27.255Z,14.73
2022-12-11T11:12:28.817Z,15.82
2022-12-11T11:14:30.381Z,14.52
2022-12-11T11:16:34.935Z,14.57
2022-12-11T11:18:36.541Z,14.52
2022-12-11T11:20:46.483Z,14.60
2022-12-11T11:22:52.343Z,15.88
2022-12-11T11:24:59.047Z,15.52
2022-12-11T11:27:16.486Z,14.35
2022-12-11T11:29:37.759Z,14.98
2022-12-11T11:31:39.330Z,14.60
2022-12-11T11:33:56.016Z,14.85
2022-12-11T11:36:02.455Z,15.98
2022-12-11T11:38:09.636Z,16.05
2022-12-11T11:40:33.308Z,15.27
2022-12-11T11:42:45.595Z,15.88
2022-12-11T11:44:59.808Z,14.00
2022-12-11T11:47:09.046Z,15.75
2022-12-11T11:49:24.262Z,14.63
2022-12-11T11:51:41.683Z,14.68
2022-12-11T11:53:49.492Z,16.50
2022-12-11T11:56:03.223Z,15.07
2022-12-11T11:58:17.362Z,16.73
2022-12-11T12:00:21.362Z,19.10
2022-12-11T12:02:22.897Z,16.33
2022-12-11T12:04:28.478Z,15.25
2022-12-11T12:07:07.247Z,15.00
2022-12-11T12:09:09.194Z,15.55
2022-12-11T12:11:13.300Z,15.70
2022-12-11T12:13:48.541Z,16.85
2022-12-11T12:16:43.779Z,16.55
2022-12-11T12:18:57.972Z,16.17
2022-12-11T12:21:00.120Z,16.42
2022-12-11T12:23:20.078Z,15.38
2022-12-11T12:25:30.328Z,15.80
2022-12-11T12:27:57.839Z,15.23
2022-12-11T12:30:03.832Z,15.50
2022-12-11T12:32:16.237Z,15.18
2022-12-11T12:34:39.419Z,16.25
2022-12-11T12:36:50.067Z,14.73
2022-12-11T12:39:28.258Z,15.48
2022-12-11T12:42:08.328Z,16.52
2022-12-11T12:44:17.723Z,16.02
2022-12-11T12:46:37.426Z,15.48
2022-12-11T12:48:39.179Z,15.63
2022-12-11T12:50:45.059Z,16.10
2022-12-11T12:52:48.742Z,15.05
2022-12-11T12:55:12.967Z,16.42
2022-12-11T12:57:14.695Z,16.13
2022-12-11T12:59:24.793Z,15.95
2022-12-11T13:01:28.774Z,16.45
2022-12-11T13:03:35.543Z,16.55
2022-12-11T13:05:40.846Z,16.20
2022-12-11T13:07:54.206Z,16.73
2022-12-11T13:09:58.650Z,15.80
2022-12-11T13:12:00.165Z,16.70
2022-12-11T13:14:22.086Z,17.10
2022-12-11T13:16:26.559Z,15.65
2022-12-11T13:18:39.292Z,14.85
2022-12-11T13:20:51.086Z,17.23
2022-12-11T13:23:07.577Z,15.70
2022-12-11T13:25:25.954Z,17.70
2022-12-11T13:27:40.755Z,15.95
2022-12-11T13:29:42.775Z,17.48
2022-12-11T13:31:45.544Z,16.52
2022-12-11T13:33:53.382Z,17.27
2022-12-11T13:36:22.916Z,16.40
2022-12-11T13:38:26.182Z,16.30
2022-12-11T13:40:33.312Z,16.55
2022-12-11T13:42:44.164Z,18.20
2022-12-11T13:44:48.459Z,16.77
2022-12-11T13:46:52.271Z,18.33
2022-12-11T13:49:00.776Z,16.55
2022-12-11T13:51:03.705Z,17.23
2022-12-11T13:53:05.450Z,18.23
2022-12-11T13:55:21.720Z,18.23
2022-12-11T13:57:25.886Z,16.77
2022-12-11T13:59:40.973Z,17.63
2022-12-11T14:01:42.538Z,18.60
2022-12-11T14:03:54.602Z,18.52
2022-12-11T14:05:56.276Z,17.55
2022-12-11T14:08:02.832Z,18.92
2022-12-11T14:10:29.925Z,17.60
2022-12-11T14:12:32.767Z,17.73
2022-12-11T14:14:42.699Z,18.60
2022-12-11T14:16:48.186Z,17.08
2022-12-11T14:18:51.989Z,18.67
2022-12-11T14:20:55.909Z,18.00
2022-12-11T14:23:24.075Z,18.20
2022-12-11T14:25:27.503Z,18.38
2022-12-11T14:27:29.680Z,20.60
2022-12-11T14:29:33.217Z,19.77
2022-12-11T14:31:39.967Z,19.27
2022-12-11T14:33:47.522Z,18.70
2022-12-11T14:35:50.507Z,19.77
2022-12-11T14:37:53.054Z,19.40
2022-12-11T14:40:24.147Z,18.58
2022-12-11T14:42:32.462Z,18.42
2022-12-11T14:44:49.103Z,19.17
2022-12-11T14:46:55.422Z,18.48
2022-12-11T14:49:01.817Z,19.52
2022-12-11T14:51:07.562Z,19.30
2022-12-11T14:53:15.479Z,17.67
2022-12-11T14:55:24.326Z,19.65
2022-12-11T14:57:30.606Z,20.27
2022-12-11T14:59:41.272Z,18.02
2022-12-11T15:01:42.851Z,19.38
2022-12-11T15:03:44.618Z,18.52
2022-12-11T15:05:56.735Z,18.35
2022-12-11T15:08:24.410Z,17.73
2022-12-11T15:10:36.904Z,14.90
2022-12-11T15:12:45.353Z,13.43
2022-12-11T15:14:51.484Z,12.60
2022-12-11T15:16:56.278Z,13.70
2022-12-11T15:19:01.543Z,13.45
2022-12-11T15:21:09.989Z,12.38
2022-12-11T15:23:18.680Z,12.40
2022-12-11T15:25:22.901Z,11.88
2022-12-11T15:27:30.801Z,11.57
2022-12-11T15:29:38.361Z,12.07
2022-12-11T15:31:39.933Z,10.98
2022-12-11T15:33:48.010Z,10.73
2022-12-11T15:35:53.705Z,10.18
2022-12-11T15:37:57.513Z,10.68
2022-12-11T15:40:01.501Z,10.73
2022-12-11T15:42:03.063Z,11.07
2022-12-11T15:44:04.984Z,11.52
2022-12-11T15:46:07.271Z,10.57
2022-12-11T15:48:11.328Z,11.57
2022-12-11T15:50:27.154Z,9.90
2022-12-11T15:52:28.825Z,10.48
2022-12-11T15:54:30.298Z,10.88
2022-12-11T15:56:31.944Z,11.32
2022-12-11T15:58:33.429Z,10.70
2022-12-11T16:00:35.183Z,11.10
2022-12-11T16:02:36.643Z,11.48
2022-12-11T16:04:38.315Z,11.85
2022-12-11T16:06:45.207Z,14.43
2022-12-11T16:08:46.839Z,15.52
2022-12-11T16:10:48.762Z,17.20
2022-12-11T16:12:50.348Z,16.48
2022-12-11T16:14:51.943Z,16.92
2022-12-11T16:16:53.441Z,17.80
2022-12-11T16:18:54.898Z,16.90
2022-12-11T16:20:56.361Z,17.25
2022-12-11T16:22:59.232Z,17.70
2022-12-11T16:25:00.763Z,17.88
2022-12-11T16:27:03.190Z,16.42
2022-12-11T16:29:04.648Z,16.40
2022-12-11T16:31:14.349Z,17.55
2022-12-11T16:33:16.370Z,17.58
2022-12-11T16:35:18.743Z,17.88
2022-12-11T16:37:20.406Z,16.55
2022-12-11T16:39:21.825Z,15.00
2022-12-11T16:41:23.983Z,17.52
2022-12-11T16:43:25.519Z,16.30
2022-12-11T16:45:27.341Z,18.08
2022-12-11T16:47:30.337Z,16.67
2022-12-11T16:49:32.234Z,16.75
2022-12-11T16:51:33.882Z,18.50
2022-12-11T16:53:35.403Z,16.40
2022-12-11T16:55:39.547Z,16.83
2022-12-11T16:57:41.516Z,17.45
2022-12-11T16:59:43.465Z,16.83
2022-12-11T17:01:45.836Z,18.50
2022-12-11T17:03:47.451Z,16.98
2022-12-11T17:05:48.879Z,16.60
2022-12-11T17:07:50.562Z,17.48
2022-12-11T17:09:52.031Z,18.00
2022-12-11T17:11:53.777Z,19.25
2022-12-11T17:13:56.757Z,18.55
2022-12-11T17:15:58.326Z,17.40
2022-12-11T17:17:59.818Z,18.20
2022-12-11T17:20:01.338Z,18.23
2022-12-11T17:22:03.489Z,18.58
2022-12-11T17:24:05.266Z,18.15
2022-12-11T17:26:08.775Z,18.75
2022-12-11T17:28:11.399Z,18.67
2022-12-11T17:30:14.177Z,17.65
2022-12-11T17:32:16.749Z,18.48
2022-12-11T17:34:18.234Z,19.13
2022-12-11T17:36:21.787Z,18.40
2022-12-11T17:38:23.238Z,19.05
2022-12-11T17:40:24.877Z,19.20
2022-12-11T17:42:26.541Z,18.40
2022-12-11T17:44:30.678Z,18.95
2022-12-11T17:46:32.300Z,17.55
2022-12-11T17:48:34.111Z,18.88
2022-12-11T17:50:43.768Z,19.63
2022-12-11T17:52:45.222Z,19.98
2022-12-11T17:54:46.694Z,19.58
2022-12-11T17:56:48.295Z,18.50
2022-12-11T17:58:49.990Z,18.85
2022-12-11T18:00:54.442Z,19.25
2022-12-11T18:02:55.891Z,19.20
2022-12-11T18:04:57.313Z,23.10
2022-12-11T18:06:58.785Z,20.17
2022-12-11T18:09:00.227Z,20.55
2022-12-11T18:11:07.446Z,20.38
2022-12-11T18:13:09.713Z,21.20
2022-12-11T18:15:11.745Z,20.23
2022-12-11T18:17:13.411Z,20.83
2022-12-11T18:19:15.761Z,20.90
2022-12-11T18:21:21.596Z,20.02
2022-12-11T18:23:23.445Z,20.55
2022-12-11T18:25:24.941Z,19.85
2022-12-11T18:27:26.601Z,19.73
2022-12-11T18:29:28.687Z,20.90
2022-12-11T18:31:30.338Z,19.40
2022-12-11T18:33:32.229Z,19.50
2022-12-11T18:35:33.747Z,21.52
2022-12-11T18:37:35.961Z,24.15
2022-12-11T18:39:37.416Z,23.38
2022-12-11T18:41:39.070Z,22.55
2022-12-11T18:43:41.484Z,21.77
2022-12-11T18:45:45.120Z,22.10
2022-12-11T18:47:47.257Z,21.15
2022-12-11T18:49:48.777Z,21.70
2022-12-11T18:51:50.319Z,19.70
2022-12-11T18:53:52.505Z,23.20
2022-12-11T18:56:00.025Z,21.88
2022-12-11T18:58:01.834Z,22.17
2022-12-11T19:00:07.465Z,21.65
2022-12-11T19:02:10.971Z,22.08
2022-12-11T19:04:13.442Z,20.63
2022-12-11T19:06:18.623Z,19.02
2022-12-11T19:08:21.121Z,19.95
2022-12-11T19:10:22.767Z,19.85
2022-12-11T19:12:24.339Z,20.38
2022-12-11T19:14:25.869Z,21.23
2022-12-11T19:16:30.244Z,21.08
2022-12-11T19:18:31.930Z,20.92
2022-12-11T19:21:00.461Z,22.75
2022-12-11T19:22:58.415Z,21.92
2022-12-11T19:25:00.486Z,22.23
2022-12-11T19:27:02.064Z,21.65
2022-12-11T19:29:03.840Z,22.42
2022-12-11T19:31:12.161Z,21.63
2022-12-11T19:33:13.879Z,24.00
2022-12-11T19:35:16.719Z,24.02
2022-12-11T19:37:18.671Z,24.85
2022-12-11T19:39:20.636Z,25.42
2022-12-11T19:41:27.131Z,24.08
2022-12-11T19:43:28.596Z,24.23
2022-12-11T19:45:30.081Z,23.70
2022-12-11T19:47:32.172Z,24.92
2022-12-11T19:49:33.817Z,25.40
2022-12-11T19:51:41.010Z,28.40
2022-12-11T19:53:43.504Z,27.98
2022-12-11T19:55:52.943Z,24.77
2022-12-11T19:57:55.665Z,23.98
2022-12-11T19:59:57.564Z,25.15
2022-12-11T20:01:59.186Z,22.60
2022-12-11T20:04:04.099Z,22.92
2022-12-11T20:06:07.995Z,21.55
2022-12-11T20:08:42.519Z,21.52
2022-12-11T20:10:31.009Z,22.20
2022-12-11T20:12:32.672Z,23.25
2022-12-11T20:14:34.124Z,21.48
2022-12-11T20:17:09.276Z,21.05
2022-12-11T20:18:58.507Z,22.15
2022-12-11T20:21:01.145Z,20.13
2022-12-11T20:23:02.711Z,20.10
2022-12-11T20:25:04.653Z,20.65
2022-12-11T20:27:06.231Z,21.48
2022-12-11T20:29:08.406Z,21.95
2022-12-11T20:31:19.727Z,22.15
2022-12-11T20:33:22.435Z,21.80
2022-12-11T20:35:26.312Z,21.42
2022-12-11T20:37:29.069Z,22.15
2022-12-11T20:39:31.960Z,22.50
2022-12-11T20:41:33.613Z,19.90
2022-12-11T20:43:35.347Z,21.52
2022-12-11T20:45:36.904Z,21.10
2022-12-11T20:47:38.370Z,21.98
2022-12-11T20:49:40.428Z,21.45
2022-12-11T20:51:42.093Z,23.25
2022-12-11T20:53:43.672Z,24.48
2022-12-11T20:55:45.124Z,22.70
2022-12-11T20:57:46.591Z,22.17
2022-12-11T20:59:49.461Z,22.50
2022-12-11T21:01:51.046Z,22.80
2022-12-11T21:03:53.534Z,23.40
2022-12-11T21:05:55.088Z,24.38
2022-12-11T21:07:56.935Z,24.52
2022-12-11T21:09:58.461Z,23.42
2022-12-11T21:12:01.547Z,23.67
2022-12-11T21:14:03.852Z,22.48
2022-12-11T21:16:07.203Z,23.15
2022-12-11T21:18:08.903Z,21.80
2022-12-11T21:20:10.855Z,22.33
2022-12-11T21:22:12.534Z,21.42
2022-12-11T21:24:21.064Z,21.88
2022-12-11T21:26:22.714Z,22.38
2022-12-11T21:28:24.261Z,21.15
2022-12-11T21:30:25.708Z,23.10
2022-12-11T21:32:29.881Z,21.42
2022-12-11T21:34:31.389Z,22.45
2022-12-11T21:36:33.473Z,22.35
2022-12-11T21:38:35.048Z,23.60
2022-12-11T21:40:36.542Z,21.83
2022-12-11T21:42:37.986Z,21.48
2022-12-11T21:47:00.917Z,21.40
2022-12-11T21:49:02.438Z,22.40
2022-12-11T21:51:08.508Z,21.13
2022-12-11T21:53:10.025Z,21.65
2022-12-11T21:55:12.619Z,20.73
2022-12-11T21:57:14.413Z,23.80
2022-12-11T21:59:15.955Z,27.52
2022-12-11T22:01:21.546Z,24.92
2022-12-11T22:03:23.135Z,22.13
2022-12-11T22:05:24.699Z,22.73
2022-12-11T22:07:26.570Z,23.02
2022-12-11T22:09:28.006Z,22.90
2022-12-11T22:11:32.823Z,23.33
2022-12-11T22:13:34.314Z,24.80
2022-12-11T22:15:35.795Z,23.83
2022-12-11T22:17:37.304Z,22.95
2022-12-11T22:19:38.744Z,23.20
2022-12-11T22:21:40.372Z,21.27
2022-12-11T22:23:42.769Z,21.70
2022-12-11T22:25:44.202Z,19.85
2022-12-11T22:27:45.639Z,21.30
2022-12-11T22:29:47.132Z,22.25
2022-12-11T22:31:48.685Z,24.75
2022-12-11T22:33:53.730Z,23.45
2022-12-11T22:35:59.722Z,22.50
2022-12-11T22:38:01.556Z,22.40
2022-12-11T22:40:04.244Z,21.45
2022-12-11T22:42:05.693Z,22.33
2022-12-11T22:44:07.845Z,21.13
2022-12-11T22:46:15.823Z,24.50
2022-12-11T22:48:17.362Z,22.40
2022-12-11T22:50:18.957Z,22.65
2022-12-11T22:52:20.417Z,22.27
2022-12-11T22:54:21.861Z,22.63
2022-12-11T22:56:23.363Z,22.10
2022-12-11T22:58:24.801Z,21.27
2022-12-11T23:00:26.330Z,21.88
2022-12-11T23:02:27.843Z,22.20
2022-12-11T23:04:29.301Z,21.75
2022-12-11T23:06:30.941Z,21.98
2022-12-11T23:08:33.135Z,22.67
2022-12-11T23:10:35.058Z,22.30
2022-12-11T23:12:37.041Z,22.30
2022-12-11T23:14:38.514Z,21.65
2022-12-11T23:16:40.054Z,23.40
2022-12-11T23:18:41.658Z,21.40
2022-12-11T23:20:43.166Z,21.90
2022-12-11T23:22:44.622Z,23.88
2022-12-11T23:24:46.124Z,23.83
2022-12-11T23:26:48.116Z,23.35
2022-12-11T23:28:50.096Z,22.42
2022-12-11T23:30:51.681Z,23.77
2022-12-11T23:32:53.155Z,23.80
2022-12-11T23:34:54.659Z,25.65
2022-12-11T23:36:56.119Z,25.38
2022-12-11T23:38:57.632Z,24.13
2022-12-11T23:41:00.624Z,23.23
2022-12-11T23:43:02.108Z,23.83
2022-12-11T23:45:03.872Z,24.77
2022-12-11T23:47:05.677Z,23.10
2022-12-11T23:49:07.114Z,24.65
2022-12-11T23:51:13.101Z,21.75
2022-12-11T23:53:15.209Z,23.48
2022-12-11T23:55:16.705Z,19.55
2022-12-11T23:57:18.245Z,20.25
2022-12-11T23:59:19.725Z,21.52
